Time;durP1;ratioP1;P1;durP2;ratioP2;P2;SDS_P1;SDS_P2;PMS_P1;PMS_P2;Temp;Humidity;BMP_temperature;BMP_pressure;BME280_temperature;BME280_humidity;BME280_pressure;Samples;Min_cycle;Max_cycle;Signal;HPM_P1;HPM_P2
2024/01/04 00:01:15;;;;;;;1.00;1.00;;;;;;;6.88;84.05;95360.84;4976765;28;20046;-70
2024/01/04 00:03:44;;;;;;;0.90;0.90;;;;;;;6.86;83.96;95365.56;4990518;28;20034;-70
2024/01/04 00:06:11;;;;;;;0.93;0.93;;;;;;;6.87;84.41;95369.03;4954519;28;20053;-70
2024/01/04 00:08:39;;;;;;;1.02;1.02;;;;;;;6.85;84.69;95379.06;4976260;28;20050;-70
2024/01/04 00:11:10;;;;;;;0.60;0.60;;;;;;;6.83;84.70;95363.38;4971808;28;20051;-71
2024/01/04 00:13:37;;;;;;;0.80;0.80;;;;;;;6.82;84.69;95367.06;4984934;28;20042;-71
2024/01/04 00:16:09;;;;;;;0.95;0.95;;;;;;;6.88;84.14;95366.16;4974719;28;20043;-71
2024/01/04 00:18:37;;;;;;;0.77;0.77;;;;;;;6.85;83.88;95363.94;4974876;28;20129;-71
2024/01/04 00:21:06;;;;;;;0.20;0.20;;;;;;;6.88;83.10;95360.03;4985325;28;20406;-70
2024/01/04 00:23:34;;;;;;;1.27;1.27;;;;;;;6.95;82.69;95360.75;4983464;28;20054;-70
2024/01/04 00:26:03;;;;;;;0.20;0.20;;;;;;;6.93;82.87;95366.28;4947133;28;20459;-70
2024/01/04 00:28:30;;;;;;;0.88;0.88;;;;;;;7.00;82.55;95350.25;4980629;28;20164;-70
2024/01/04 00:30:58;;;;;;;0.68;0.68;;;;;;;6.96;82.75;95365.00;4979179;28;20047;-71
2024/01/04 00:33:26;;;;;;;0.85;0.85;;;;;;;7.02;83.02;95364.13;4954213;28;20051;-71
2024/01/04 00:35:54;;;;;;;0.70;0.70;;;;;;;6.98;83.38;95365.59;4964684;28;20066;-71
2024/01/04 00:38:23;;;;;;;0.65;0.65;;;;;;;6.93;83.94;95370.78;4958051;28;20046;-71
2024/01/04 00:40:50;;;;;;;0.82;0.82;;;;;;;6.88;84.81;95371.44;4967095;28;20133;-71
2024/01/04 00:43:18;;;;;;;0.95;0.95;;;;;;;6.87;84.80;95364.53;4956420;28;20055;-71
2024/01/04 00:45:45;;;;;;;0.88;0.88;;;;;;;6.86;84.65;95367.41;4955843;28;20051;-71
2024/01/04 00:48:13;;;;;;;0.13;0.13;;;;;;;6.88;84.38;95357.38;4976161;28;20433;-71
2024/01/04 00:50:42;;;;;;;0.93;0.93;;;;;;;6.91;83.66;95351.63;4991402;28;20093;-72
2024/01/04 00:53:09;;;;;;;0.90;0.90;;;;;;;7.00;83.49;95366.19;4953980;28;20072;-71
2024/01/04 00:55:38;;;;;;;0.20;0.20;;;;;;;7.03;82.31;95364.94;4983993;28;20457;-72
2024/01/04 00:58:06;;;;;;;0.82;0.82;;;;;;;7.08;81.95;95357.88;4962504;28;20090;-71
2024/01/04 01:00:34;;;;;;;0.93;0.93;;;;;;;7.14;81.41;95361.50;4981456;28;20043;-71
2024/01/04 01:03:01;;;;;;;1.00;1.00;;;;;;;7.22;81.22;95358.50;4982916;28;20050;-71
2024/01/04 01:05:29;;;;;;;0.25;0.25;;;;;;;7.15;81.00;95363.91;4979966;28;20391;-71
2024/01/04 01:07:56;;;;;;;0.85;0.85;;;;;;;7.20;80.65;95373.81;4954722;28;20505;-71
2024/01/04 01:10:24;;;;;;;0.80;0.80;;;;;;;7.18;80.83;95378.53;4957578;28;20085;-71
2024/01/04 01:12:52;;;;;;;0.82;0.82;;;;;;;7.21;80.91;95376.25;4959196;28;20506;-71
2024/01/04 01:15:20;;;;;;;0.85;0.85;;;;;;;7.15;81.21;95374.53;4971513;28;20422;-71
2024/01/04 01:17:49;;;;;;;0.77;0.77;;;;;;;7.12;81.90;95384.78;4949946;28;20039;-71
2024/01/04 01:20:17;;;;;;;0.75;0.75;;;;;;;7.06;82.67;95386.47;4953650;28;20047;-70
2024/01/04 01:22:44;;;;;;;0.75;0.75;;;;;;;7.02;83.60;95387.97;4952176;28;20031;-70
2024/01/04 01:25:12;;;;;;;1.00;1.00;;;;;;;6.95;84.40;95381.97;4961262;28;20050;-70
2024/01/04 01:27:39;;;;;;;0.90;0.90;;;;;;;6.86;85.04;95381.47;4957282;28;20055;-70
2024/01/04 01:30:10;;;;;;;0.95;0.95;;;;;;;6.82;85.63;95375.03;4980414;28;20078;-70
2024/01/04 01:32:37;;;;;;;0.20;0.20;;;;;;;6.78;85.83;95379.13;4969166;28;20486;-70
2024/01/04 01:35:07;;;;;;;1.05;1.05;;;;;;;6.76;85.85;95396.31;4956413;28;20129;-70
2024/01/04 01:37:34;;;;;;;0.80;0.80;;;;;;;6.72;85.84;95389.84;4949794;28;20138;-70
2024/01/04 01:40:02;;;;;;;0.60;0.60;;;;;;;6.74;84.65;95398.41;4989497;28;20091;-70
2024/01/04 01:42:30;;;;;;;0.82;0.82;;;;;;;6.72;84.28;95395.97;4965007;28;20053;-70
2024/01/04 01:44:59;;;;;;;1.05;1.05;;;;;;;6.73;83.67;95397.59;4972945;28;20498;-70
2024/01/04 01:47:29;;;;;;;0.95;0.95;;;;;;;6.73;82.95;95402.06;4962285;28;20042;-70
2024/01/04 01:49:57;;;;;;;0.70;0.70;;;;;;;6.68;82.64;95392.13;4975934;28;20053;-71
2024/01/04 01:52:25;;;;;;;0.80;0.80;;;;;;;6.65;82.50;95392.56;4983995;28;20039;-70
2024/01/04 01:54:52;;;;;;;0.75;0.75;;;;;;;6.64;82.79;95394.41;4971478;28;20038;-70
2024/01/04 01:57:21;;;;;;;1.00;1.00;;;;;;;6.54;82.82;95396.00;4971599;28;20035;-70
2024/01/04 01:59:49;;;;;;;0.28;0.28;;;;;;;6.54;83.17;95385.41;4959414;28;20443;-70
2024/01/04 02:02:17;;;;;;;1.08;1.08;;;;;;;6.51;82.50;95380.56;4961783;28;20050;-70
2024/01/04 02:04:47;;;;;;;1.38;1.38;;;;;;;6.54;82.85;95388.84;4972665;28;20085;-70
2024/01/04 02:07:15;;;;;;;0.90;0.90;;;;;;;6.52;82.92;95396.22;4968720;28;20048;-70
2024/01/04 02:09:43;;;;;;;1.05;1.05;;;;;;;6.46;83.36;95406.88;4964411;28;20125;-70
2024/01/04 02:12:12;;;;;;;0.75;0.75;;;;;;;6.47;83.76;95413.81;4966031;28;20133;-70
2024/01/04 02:14:40;;;;;;;0.80;0.80;;;;;;;6.45;84.13;95402.63;4964680;28;20054;-70
2024/01/04 02:17:08;;;;;;;0.93;0.93;;;;;;;6.56;84.22;95421.22;4943366;28;20043;-70
2024/01/04 02:19:36;;;;;;;1.05;1.05;;;;;;;6.56;84.27;95423.06;4958442;28;20048;-70
2024/01/04 02:22:05;;;;;;;0.60;0.60;;;;;;;6.50;84.16;95416.84;4954162;28;20142;-70
2024/01/04 02:24:34;;;;;;;0.90;0.90;;;;;;;6.53;84.38;95420.88;4958271;28;20043;-70
2024/01/04 02:27:01;;;;;;;0.38;0.38;;;;;;;6.53;84.02;95408.44;4967472;28;20464;-70
2024/01/04 02:29:29;;;;;;;1.38;1.38;;;;;;;6.59;83.31;95423.44;4960092;28;20081;-70
2024/01/04 02:31:57;;;;;;;0.88;0.88;;;;;;;6.67;81.94;95419.66;4958335;28;20529;-70
2024/01/04 02:34:24;;;;;;;0.70;0.70;;;;;;;6.72;80.81;95417.16;4966261;28;20045;-70
2024/01/04 02:36:52;;;;;;;0.30;0.30;;;;;;;6.75;80.83;95414.03;4969634;28;20433;-70
2024/01/04 02:39:21;;;;;;;0.80;0.80;;;;;;;6.76;80.30;95417.50;4951648;28;20058;-69
2024/01/04 02:41:50;;;;;;;0.73;0.73;;;;;;;6.87;79.58;95416.75;4953427;28;20659;-70
2024/01/04 02:44:17;;;;;;;0.57;0.57;;;;;;;6.82;79.93;95390.13;4960217;28;20046;-70
2024/01/04 02:46:45;;;;;;;0.95;0.95;;;;;;;6.80;80.25;95397.47;4971830;28;20055;-70
2024/01/04 02:49:13;;;;;;;0.80;0.80;;;;;;;6.81;79.83;95407.06;4973569;28;20156;-70
2024/01/04 02:51:41;;;;;;;0.68;0.68;;;;;;;6.78;80.26;95399.53;4979213;28;20086;-70
2024/01/04 02:54:08;;;;;;;0.73;0.73;;;;;;;6.80;79.97;95408.88;4968463;28;20494;-72
2024/01/04 02:56:36;;;;;;;0.85;0.85;;;;;;;6.82;80.19;95408.69;4977929;28;20042;-70
2024/01/04 02:59:07;;;;;;;0.35;0.35;;;;;;;6.80;80.37;95406.25;4970152;28;20426;-70
2024/01/04 03:01:35;;;;;;;0.88;0.88;;;;;;;6.81;80.33;95405.22;4978767;28;20050;-70
2024/01/04 03:04:02;;;;;;;0.75;0.75;;;;;;;6.82;80.28;95412.13;4982876;28;20044;-69
2024/01/04 03:06:30;;;;;;;1.02;1.02;;;;;;;6.83;80.49;95407.63;4981994;28;20038;-70
2024/01/04 03:08:58;;;;;;;0.68;0.68;;;;;;;6.82;80.59;95406.84;4976071;28;20047;-70
2024/01/04 03:11:25;;;;;;;0.95;0.95;;;;;;;6.88;80.41;95403.28;4979848;28;20054;-71
2024/01/04 03:13:53;;;;;;;1.05;1.05;;;;;;;6.87;80.56;95385.75;4973670;28;20133;-71
2024/01/04 03:16:23;;;;;;;0.82;0.82;;;;;;;6.89;80.46;95396.94;4972457;28;20057;-71
2024/01/04 03:18:50;;;;;;;1.05;1.05;;;;;;;6.89;80.56;95388.97;4970842;28;20054;-70
2024/01/04 03:21:18;;;;;;;0.70;0.70;;;;;;;6.88;80.76;95403.28;4987093;28;20056;-70
2024/01/04 03:23:46;;;;;;;0.75;0.75;;;;;;;6.88;80.80;95387.34;4972806;28;20055;-70
2024/01/04 03:26:14;;;;;;;0.75;0.75;;;;;;;6.93;81.24;95387.50;4972315;28;20791;-71
2024/01/04 03:28:41;;;;;;;0.80;0.80;;;;;;;6.85;81.63;95379.84;4971106;28;20485;-71
2024/01/04 03:31:09;;;;;;;0.73;0.73;;;;;;;6.87;81.86;95383.09;4968952;28;20082;-70
2024/01/04 03:33:38;;;;;;;0.75;0.75;;;;;;;6.85;82.21;95392.31;4971841;28;20105;-71
2024/01/04 03:36:07;;;;;;;0.85;0.85;;;;;;;6.88;82.16;95383.91;4980357;28;20514;-70
2024/01/04 03:38:35;;;;;;;0.90;0.90;;;;;;;6.88;81.59;95397.16;4972829;28;20114;-70
2024/01/04 03:41:02;;;;;;;1.00;1.00;;;;;;;6.85;81.87;95401.06;4979028;28;20114;-72
2024/01/04 03:43:30;;;;;;;0.20;0.20;;;;;;;6.89;81.43;95374.91;4978763;28;20227;-70
2024/01/04 03:45:58;;;;;;;1.13;1.13;;;;;;;6.87;81.55;95398.19;4983711;28;20043;-72
2024/01/04 03:48:25;;;;;;;0.93;0.93;;;;;;;6.88;81.69;95405.09;4976863;28;20046;-69
2024/01/04 03:50:54;;;;;;;0.68;0.68;;;;;;;6.91;81.65;95409.97;4988703;28;20047;-69
2024/01/04 03:53:22;;;;;;;0.82;0.82;;;;;;;6.95;81.25;95417.25;4965479;28;20043;-70
2024/01/04 03:55:49;;;;;;;0.80;0.80;;;;;;;6.95;81.25;95411.97;4985074;28;20097;-70
2024/01/04 03:58:17;;;;;;;0.73;0.73;;;;;;;6.90;81.16;95409.16;4972448;28;20053;-72
2024/01/04 04:00:45;;;;;;;0.90;0.90;;;;;;;6.92;81.42;95417.69;4979661;28;20122;-69
2024/01/04 04:03:12;;;;;;;1.00;1.00;;;;;;;6.88;81.69;95423.66;4973567;28;20118;-69
2024/01/04 04:05:44;;;;;;;0.80;0.80;;;;;;;6.88;81.44;95411.22;4970755;28;20498;-72
2024/01/04 04:08:13;;;;;;;0.57;0.57;;;;;;;6.93;81.19;95411.38;4954144;28;20052;-69
2024/01/04 04:10:41;;;;;;;0.73;0.73;;;;;;;6.88;81.25;95432.44;4978277;28;20038;-69
2024/01/04 04:13:09;;;;;;;0.17;0.17;;;;;;;6.93;80.53;95435.22;4975068;28;20507;-72
2024/01/04 04:15:36;;;;;;;0.88;0.88;;;;;;;6.95;80.77;95435.00;4971547;28;20089;-72
2024/01/04 04:18:04;;;;;;;1.10;1.10;;;;;;;6.90;81.03;95432.22;4970540;28;20039;-71
2024/01/04 04:20:32;;;;;;;0.85;0.85;;;;;;;6.89;80.60;95433.25;4983447;28;20046;-71
2024/01/04 04:23:00;;;;;;;1.33;1.33;;;;;;;6.90;80.72;95435.69;4986112;28;20502;-71
2024/01/04 04:25:29;;;;;;;1.02;1.02;;;;;;;6.85;81.00;95448.00;4975209;28;20050;-72
2024/01/04 04:27:57;;;;;;;0.80;0.80;;;;;;;6.83;81.28;95444.75;4977307;28;20042;-71
2024/01/04 04:30:25;;;;;;;1.02;1.02;;;;;;;6.88;81.38;95458.94;4976295;28;20055;-71
2024/01/04 04:32:52;;;;;;;0.88;0.88;;;;;;;6.86;82.06;95446.94;4971652;28;20153;-71
2024/01/04 04:35:20;;;;;;;0.55;0.55;;;;;;;6.80;82.19;95455.81;4984431;28;20039;-71
2024/01/04 04:37:48;;;;;;;0.22;0.22;;;;;;;6.77;82.22;95467.66;4967570;28;20466;-71
2024/01/04 04:40:16;;;;;;;0.85;0.85;;;;;;;6.75;82.36;95474.22;4967830;28;20567;-71
2024/01/04 04:42:45;;;;;;;0.77;0.77;;;;;;;6.78;81.90;95468.47;4975718;28;20050;-71
2024/01/04 04:45:12;;;;;;;0.88;0.88;;;;;;;6.79;81.94;95475.38;4986981;28;20047;-71
2024/01/04 04:47:40;;;;;;;1.10;1.10;;;;;;;6.78;81.87;95476.41;4972836;28;20058;-72
2024/01/04 04:50:09;;;;;;;0.85;0.85;;;;;;;6.79;82.13;95473.53;4979869;28;20049;-72
2024/01/04 04:52:36;;;;;;;0.93;0.93;;;;;;;6.77;81.65;95483.56;4981355;28;20038;-72
2024/01/04 04:55:05;;;;;;;0.60;0.60;;;;;;;6.78;81.52;95476.41;4974497;28;20093;-72
2024/01/04 04:57:36;;;;;;;1.00;1.00;;;;;;;6.76;81.51;95473.97;4990101;28;20069;-73
2024/01/04 05:00:07;;;;;;;0.70;0.70;;;;;;;6.79;81.23;95480.69;4973374;28;20070;-73
2024/01/04 05:02:35;;;;;;;0.60;0.60;;;;;;;6.77;81.28;95482.75;4979076;28;20053;-70
2024/01/04 05:05:03;;;;;;;0.82;0.82;;;;;;;6.79;81.25;95499.25;4980352;28;20074;-71
2024/01/04 05:07:30;;;;;;;0.93;0.93;;;;;;;6.77;81.02;95510.06;4972448;28;20596;-70
2024/01/04 05:09:58;;;;;;;0.68;0.68;;;;;;;6.77;81.24;95512.72;4975951;28;20130;-73
2024/01/04 05:12:31;;;;;;;0.70;0.70;;;;;;;6.80;80.88;95514.13;4970591;28;20078;-70
2024/01/04 05:14:59;;;;;;;0.80;0.80;;;;;;;6.82;80.94;95512.88;4985683;28;20065;-70
2024/01/04 05:17:28;;;;;;;0.63;0.63;;;;;;;6.85;80.78;95527.53;4977322;28;20035;-70
2024/01/04 05:19:56;;;;;;;0.88;0.88;;;;;;;6.83;81.15;95526.94;4967212;28;20054;-71
2024/01/04 05:22:24;;;;;;;0.70;0.70;;;;;;;6.80;81.27;95528.19;4967119;28;20046;-70
2024/01/04 05:24:51;;;;;;;1.00;1.00;;;;;;;6.79;81.68;95528.41;4974255;28;20050;-72
2024/01/04 05:27:19;;;;;;;0.93;0.93;;;;;;;6.80;82.20;95525.53;4978218;28;20053;-70
2024/01/04 05:29:47;;;;;;;1.00;1.00;;;;;;;6.76;82.59;95527.00;4975101;28;20090;-70
2024/01/04 05:32:14;;;;;;;0.88;0.88;;;;;;;6.73;83.25;95543.38;4964268;28;20134;-70
2024/01/04 05:34:44;;;;;;;0.75;0.75;;;;;;;6.68;83.66;95542.41;4978873;28;20054;-70
2024/01/04 05:37:12;;;;;;;0.82;0.82;;;;;;;6.67;84.40;95540.78;4976250;28;20525;-71
2024/01/04 05:39:41;;;;;;;0.98;0.98;;;;;;;6.63;84.77;95551.84;4974051;28;20097;-70
2024/01/04 05:42:09;;;;;;;0.85;0.85;;;;;;;6.62;85.11;95550.22;4973630;28;20160;-70
2024/01/04 05:44:37;;;;;;;0.75;0.75;;;;;;;6.60;84.93;95554.13;4963562;28;20050;-70
2024/01/04 05:47:05;;;;;;;0.13;0.13;;;;;;;6.56;85.89;95555.56;4970579;28;20478;-70
2024/01/04 05:49:33;;;;;;;0.85;0.85;;;;;;;6.53;86.06;95561.34;4972869;28;20045;-70
2024/01/04 05:52:02;;;;;;;1.15;1.15;;;;;;;6.50;85.91;95569.72;4969536;28;20073;-70
2024/01/04 05:54:30;;;;;;;0.70;0.70;;;;;;;6.51;86.10;95574.78;4979300;28;20094;-70
2024/01/04 05:56:57;;;;;;;0.80;0.80;;;;;;;6.56;85.91;95566.16;4963305;28;20049;-70
2024/01/04 05:59:25;;;;;;;0.90;0.90;;;;;;;6.52;85.40;95576.41;4968412;28;20049;-71
2024/01/04 06:01:53;;;;;;;0.77;0.77;;;;;;;6.54;85.57;95581.50;4960833;28;20045;-70
2024/01/04 06:04:20;;;;;;;0.65;0.65;;;;;;;6.54;85.54;95584.94;4973229;28;20074;-70
2024/01/04 06:06:48;;;;;;;0.70;0.70;;;;;;;6.58;85.03;95599.38;4979851;28;20038;-71
2024/01/04 06:09:20;;;;;;;1.05;1.05;;;;;;;6.59;84.91;95594.91;4981701;28;20046;-70
2024/01/04 06:11:50;;;;;;;0.30;0.30;;;;;;;6.55;85.76;95599.00;4966467;28;20470;-72
2024/01/04 06:14:18;;;;;;;0.68;0.68;;;;;;;6.50;86.10;95602.31;4976639;28;20509;-70
2024/01/04 06:16:46;;;;;;;0.65;0.65;;;;;;;6.56;85.50;95621.81;4977666;28;20107;-72
2024/01/04 06:19:13;;;;;;;0.98;0.98;;;;;;;6.53;85.66;95625.75;4974876;28;20049;-72
2024/01/04 06:21:41;;;;;;;1.05;1.05;;;;;;;6.53;85.52;95625.75;4971662;28;20050;-73
2024/01/04 06:24:09;;;;;;;0.90;0.90;;;;;;;6.54;85.29;95629.22;4966799;28;20083;-72
2024/01/04 06:26:38;;;;;;;0.80;0.80;;;;;;;6.58;85.25;95635.69;4973582;28;20043;-74
2024/01/04 06:29:05;;;;;;;0.93;0.93;;;;;;;6.55;84.97;95639.56;4972786;28;20058;-71
2024/01/04 06:31:33;;;;;;;0.85;0.85;;;;;;;6.59;84.16;95643.41;4973335;28;20043;-72
2024/01/04 06:34:01;;;;;;;0.77;0.77;;;;;;;6.61;84.03;95637.91;4973091;28;20046;-73
2024/01/04 06:36:28;;;;;;;0.93;0.93;;;;;;;6.65;83.46;95647.00;4968414;28;20046;-72
2024/01/04 06:38:56;;;;;;;1.38;1.38;;;;;;;6.69;83.21;95658.00;4979051;28;20043;-69
2024/01/04 06:41:29;;;;;;;0.60;0.60;;;;;;;6.68;83.13;95653.72;4981308;28;20051;-70
2024/01/04 06:43:58;;;;;;;1.08;1.08;;;;;;;6.67;83.36;95668.81;4974456;28;20644;-69
2024/01/04 06:46:25;;;;;;;0.82;0.82;;;;;;;6.68;83.67;95674.94;4972520;28;20134;-73
2024/01/04 06:48:53;;;;;;;0.65;0.65;;;;;;;6.67;83.48;95673.31;4972510;28;20050;-70
2024/01/04 06:51:21;;;;;;;0.90;0.90;;;;;;;6.69;83.72;95676.56;4971885;28;20046;-69
2024/01/04 06:53:48;;;;;;;1.15;1.15;;;;;;;6.68;83.92;95672.28;4972308;28;20505;-72
2024/01/04 06:56:18;;;;;;;0.85;0.85;;;;;;;6.71;83.85;95682.47;4972313;28;20047;-72
2024/01/04 06:58:45;;;;;;;0.95;0.95;;;;;;;6.59;84.31;95688.47;4972357;28;20557;-72
2024/01/04 07:01:14;;;;;;;0.65;0.65;;;;;;;6.57;84.35;95695.00;4964263;28;20046;-70
2024/01/04 07:03:42;;;;;;;0.98;0.98;;;;;;;6.57;84.30;95695.81;4981750;28;20042;-70
2024/01/04 07:06:09;;;;;;;1.05;1.05;;;;;;;6.56;84.42;95696.03;4973860;28;20046;-70
2024/01/04 07:08:36;;;;;;;0.90;0.90;;;;;;;6.58;84.69;95704.59;4972428;28;20134;-69
2024/01/04 07:11:05;;;;;;;0.30;0.30;;;;;;;6.64;84.79;95706.38;4976952;28;20391;-70
2024/01/04 07:13:34;;;;;;;0.77;0.77;;;;;;;6.62;85.11;95713.72;4976992;28;20043;-70
2024/01/04 07:16:03;;;;;;;0.75;0.75;;;;;;;6.61;84.89;95715.56;4980044;28;20122;-70
2024/01/04 07:18:32;;;;;;;1.05;1.05;;;;;;;6.57;84.98;95710.91;4976126;28;20046;-70
2024/01/04 07:21:00;;;;;;;0.90;0.90;;;;;;;6.55;85.41;95713.75;4977149;28;20046;-70
2024/01/04 07:23:28;;;;;;;0.75;0.75;;;;;;;6.58;85.06;95723.94;4969270;28;20034;-70
2024/01/04 07:25:56;;;;;;;1.10;1.10;;;;;;;6.52;85.45;95732.78;4976231;28;20526;-70
2024/01/04 07:28:23;;;;;;;0.20;0.20;;;;;;;6.58;84.44;95745.16;4984808;28;20364;-71
2024/01/04 07:30:51;;;;;;;0.73;0.73;;;;;;;6.57;84.75;95742.72;4977015;28;20513;-70
2024/01/04 07:33:21;;;;;;;0.73;0.73;;;;;;;6.68;84.41;95755.25;4976900;28;20053;-70
2024/01/04 07:35:50;;;;;;;1.60;1.60;;;;;;;6.66;84.12;95741.41;4975900;28;20043;-70
2024/01/04 07:38:17;;;;;;;0.82;0.82;;;;;;;6.67;83.93;95766.91;4976690;28;20074;-69
2024/01/04 07:40:45;;;;;;;0.75;0.75;;;;;;;6.63;84.50;95760.41;4981126;28;20498;-69
2024/01/04 07:43:13;;;;;;;0.95;0.95;;;;;;;6.62;84.92;95777.34;4978071;28;20050;-70
2024/01/04 07:45:41;;;;;;;0.22;0.22;;;;;;;6.64;84.35;95767.34;4975922;28;20410;-70
2024/01/04 07:48:11;;;;;;;1.25;1.25;;;;;;;6.73;84.06;95779.31;4973221;28;20071;-70
2024/01/04 07:50:39;;;;;;;1.00;1.00;;;;;;;6.70;84.12;95792.16;4970722;28;20034;-70
2024/01/04 07:53:08;;;;;;;0.77;0.77;;;;;;;6.71;83.80;95786.66;4974626;28;20498;-71
2024/01/04 07:55:36;;;;;;;0.90;0.90;;;;;;;6.70;83.74;95787.69;4980737;28;20047;-70
2024/01/04 07:58:04;;;;;;;0.85;0.85;;;;;;;6.70;83.95;95800.13;4979259;28;20046;-70
2024/01/04 08:00:32;;;;;;;0.60;0.60;;;;;;;6.69;84.52;95803.78;4980085;28;20505;-70
2024/01/04 08:03:03;;;;;;;0.75;0.75;;;;;;;6.66;84.55;95804.22;4977021;28;20078;-72
2024/01/04 08:05:31;;;;;;;0.68;0.68;;;;;;;6.69;84.85;95796.66;4971909;28;20050;-70
2024/01/04 08:07:59;;;;;;;0.30;0.30;;;;;;;6.69;84.50;95798.50;4972010;28;20448;-71
2024/01/04 08:10:27;;;;;;;0.10;0.10;;;;;;;6.69;84.11;95796.66;4975806;28;20422;-72
2024/01/04 08:12:58;;;;;;;0.80;0.80;;;;;;;6.71;83.92;95797.25;4976828;28;20050;-70
2024/01/04 08:15:25;;;;;;;0.30;0.30;;;;;;;6.68;83.87;95795.03;4975232;28;20484;-73
2024/01/04 08:17:53;;;;;;;0.95;0.95;;;;;;;6.70;83.72;95806.22;4975740;28;20089;-73
2024/01/04 08:20:22;;;;;;;0.75;0.75;;;;;;;6.74;82.96;95807.44;4975519;28;20039;-72
2024/01/04 08:22:49;;;;;;;1.00;1.00;;;;;;;6.74;82.96;95815.41;4977052;28;20054;-72
2024/01/04 08:25:17;;;;;;;0.85;0.85;;;;;;;6.73;82.77;95805.81;4975352;28;20062;-73
2024/01/04 08:27:46;;;;;;;1.48;1.48;;;;;;;6.81;82.94;95810.03;4954631;28;20043;-71
2024/01/04 08:30:14;;;;;;;0.85;0.85;;;;;;;6.82;83.49;95820.44;4974116;28;20570;-72
2024/01/04 08:32:41;;;;;;;0.30;0.30;;;;;;;6.83;83.67;95816.75;4976940;28;20492;-72
2024/01/04 08:35:09;;;;;;;0.85;0.85;;;;;;;6.75;83.88;95813.56;4975909;28;20125;-74
2024/01/04 08:37:37;;;;;;;0.30;0.30;;;;;;;6.73;84.09;95831.50;4974061;28;20469;-72
2024/01/04 08:40:06;;;;;;;1.08;1.08;;;;;;;6.70;84.00;95837.22;4974523;28;20039;-73
2024/01/04 08:42:34;;;;;;;1.05;1.05;;;;;;;6.68;83.85;95833.97;4968359;28;20567;-73
2024/01/04 08:45:03;;;;;;;0.73;0.73;;;;;;;6.73;83.83;95842.13;4983095;28;20046;-71
2024/01/04 08:47:31;;;;;;;0.57;0.57;;;;;;;6.74;83.07;95843.75;4968150;28;20049;-72
2024/01/04 08:50:01;;;;;;;0.90;0.90;;;;;;;6.81;81.93;95836.53;4975406;28;20043;-69
2024/01/04 08:52:29;;;;;;;0.73;0.73;;;;;;;6.81;80.73;95842.66;4975566;28;20054;-70
2024/01/04 08:54:57;;;;;;;0.60;0.60;;;;;;;6.87;80.98;95849.75;4974689;28;20046;-70
2024/01/04 08:57:24;;;;;;;0.77;0.77;;;;;;;6.88;79.98;95842.59;4974186;28;20113;-70
2024/01/04 08:59:52;;;;;;;0.85;0.85;;;;;;;6.92;78.56;95838.50;4973241;28;20042;-70
2024/01/04 09:02:21;;;;;;;1.00;1.00;;;;;;;6.96;78.80;95843.16;4979298;28;20043;-70
2024/01/04 09:04:49;;;;;;;0.77;0.77;;;;;;;6.95;77.93;95857.47;4974630;28;20038;-69
2024/01/04 09:07:18;;;;;;;1.20;1.20;;;;;;;6.96;77.38;95874.97;4973738;28;20061;-72
2024/01/04 09:09:46;;;;;;;0.75;0.75;;;;;;;6.97;77.39;95865.19;4974815;28;20038;-73
2024/01/04 09:12:15;;;;;;;0.93;0.93;;;;;;;6.98;77.07;95867.63;4977011;28;20070;-70
2024/01/04 09:14:43;;;;;;;1.25;1.25;;;;;;;7.02;76.93;95861.91;4981098;28;20077;-70
2024/01/04 09:17:10;;;;;;;1.00;1.00;;;;;;;7.00;77.40;95878.03;4973966;28;20055;-70
2024/01/04 09:19:40;;;;;;;0.82;0.82;;;;;;;6.98;77.34;95882.72;4957984;28;20047;-70
2024/01/04 09:22:08;;;;;;;0.98;0.98;;;;;;;6.98;77.50;95885.38;4975111;28;20121;-70
2024/01/04 09:24:35;;;;;;;0.90;0.90;;;;;;;6.98;77.69;95893.34;4950991;28;20101;-70
2024/01/04 09:27:03;;;;;;;1.63;1.63;;;;;;;7.00;77.83;95892.09;4974989;28;20046;-70
2024/01/04 09:29:31;;;;;;;0.85;0.85;;;;;;;6.99;78.27;95901.06;4973928;28;20053;-70
2024/01/04 09:32:01;;;;;;;0.65;0.65;;;;;;;6.98;78.41;95915.38;4974624;28;20101;-70
2024/01/04 09:34:29;;;;;;;0.77;0.77;;;;;;;7.03;77.80;95905.97;4976065;28;20047;-70
2024/01/04 09:36:58;;;;;;;0.70;0.70;;;;;;;7.05;78.32;95898.63;4974518;28;20061;-70
2024/01/04 09:39:25;;;;;;;1.00;1.00;;;;;;;7.06;77.92;95901.03;4974264;28;20065;-70
2024/01/04 09:41:53;;;;;;;0.90;0.90;;;;;;;7.10;78.10;95896.94;4979926;28;20086;-74
2024/01/04 09:44:21;;;;;;;1.08;1.08;;;;;;;7.12;77.69;95904.69;4972816;28;20368;-72
2024/01/04 09:46:50;;;;;;;0.77;0.77;;;;;;;7.17;77.79;95905.63;4973253;28;20034;-70
2024/01/04 09:49:17;;;;;;;1.27;1.27;;;;;;;7.21;77.83;95903.38;4976764;28;20050;-73
2024/01/04 09:51:49;;;;;;;0.80;0.80;;;;;;;7.23;77.14;95907.44;4978052;28;20049;-71
2024/01/04 09:54:20;;;;;;;0.15;0.15;;;;;;;7.25;76.96;95910.72;4977265;28;20451;-70
2024/01/04 09:56:50;;;;;;;0.88;0.88;;;;;;;7.25;76.92;95913.38;4974709;28;20042;-70
2024/01/04 09:59:18;;;;;;;0.65;0.65;;;;;;;7.25;77.14;95915.19;4972921;28;20047;-71
2024/01/04 10:01:46;;;;;;;0.82;0.82;;;;;;;7.23;76.87;95917.25;4972919;28;20042;-71
2024/01/04 10:04:16;;;;;;;0.65;0.65;;;;;;;7.30;76.92;95907.38;4983086;28;20482;-70
2024/01/04 10:06:45;;;;;;;0.75;0.75;;;;;;;7.24;76.92;95924.19;4972772;28;20042;-70
2024/01/04 10:09:20;;;;;;;0.30;0.30;;;;;;;7.23;77.03;95920.72;4973189;28;20417;-72
2024/01/04 10:12:02;;;;;;;1.20;1.20;;;;;;;7.30;77.31;95928.63;4979658;28;20509;-72
2024/01/04 10:14:31;;;;;;;0.95;0.95;;;;;;;7.29;77.66;95930.47;4972303;28;20094;-70
2024/01/04 10:16:59;;;;;;;1.02;1.02;;;;;;;7.29;77.31;95927.00;4972978;28;20053;-72
2024/01/04 10:19:27;;;;;;;0.30;0.30;;;;;;;7.27;77.52;95926.38;4955616;28;20396;-71
2024/01/04 10:22:01;;;;;;;1.02;1.02;;;;;;;7.27;77.31;95927.19;4973187;28;20047;-70
2024/01/04 10:24:31;;;;;;;1.00;1.00;;;;;;;7.33;77.76;95925.53;4978676;28;20117;-71
2024/01/04 10:27:01;;;;;;;0.73;0.73;;;;;;;7.34;77.33;95925.34;4972739;28;20051;-72
2024/01/04 10:29:29;;;;;;;0.82;0.82;;;;;;;7.34;76.93;95922.69;4982106;28;20748;-71
2024/01/04 10:32:00;;;;;;;0.88;0.88;;;;;;;7.36;77.56;95930.44;4977315;28;20050;-71
2024/01/04 10:34:28;;;;;;;0.85;0.85;;;;;;;7.39;77.50;95922.03;4972349;28;20050;-70
2024/01/04 10:37:08;;;;;;;0.75;0.75;;;;;;;7.37;76.68;95922.22;4972223;28;20051;-70
2024/01/04 10:39:37;;;;;;;0.75;0.75;;;;;;;7.39;76.52;95935.28;4970534;28;20057;-70
2024/01/04 10:42:06;;;;;;;0.90;0.90;;;;;;;7.36;76.53;95949.00;4973478;28;20103;-70
2024/01/04 10:44:34;;;;;;;0.60;0.60;;;;;;;7.36;76.48;95938.41;4971652;28;20042;-74
2024/01/04 10:47:02;;;;;;;0.95;0.95;;;;;;;7.32;76.23;95931.88;4979517;28;20054;-70
2024/01/04 10:49:31;;;;;;;0.80;0.80;;;;;;;7.32;76.53;95940.66;4978144;28;20034;-71
2024/01/04 10:52:00;;;;;;;0.20;0.20;;;;;;;7.30;76.13;95937.41;4977148;28;20411;-71
2024/01/04 10:54:31;;;;;;;0.47;0.47;;;;;;;7.28;76.88;95939.44;4976087;28;20054;-70
2024/01/04 10:57:01;;;;;;;0.93;0.93;;;;;;;7.23;76.33;95928.69;4974261;28;20122;-71
2024/01/04 10:59:30;;;;;;;0.75;0.75;;;;;;;7.23;76.46;95943.78;4975592;28;20058;-71
2024/01/04 11:01:58;;;;;;;1.02;1.02;;;;;;;7.22;76.51;95942.16;4975463;28;20089;-71
2024/01/04 11:04:25;;;;;;;0.30;0.30;;;;;;;7.23;76.26;95935.81;4976721;28;20414;-71
2024/01/04 11:06:58;;;;;;;0.75;0.75;;;;;;;7.22;76.71;95945.63;4960036;28;20134;-72
2024/01/04 11:09:26;;;;;;;0.73;0.73;;;;;;;7.23;76.28;95933.97;4978916;28;20074;-71
2024/01/04 11:11:56;;;;;;;1.25;1.25;;;;;;;7.26;76.53;95933.56;4982929;28;20035;-71
2024/01/04 11:14:26;;;;;;;1.00;1.00;;;;;;;7.28;76.09;95944.75;4975059;28;20050;-70
2024/01/04 11:17:06;;;;;;;0.82;0.82;;;;;;;7.29;75.69;95937.59;4974709;28;20047;-71
2024/01/04 11:19:43;;;;;;;1.15;1.15;;;;;;;7.27;77.14;95953.72;4997519;23;20042;-73
2024/01/04 11:22:22;;;;;;;0.70;0.70;;;;;;;7.23;77.17;95949.91;4975305;28;20082;-73
2024/01/04 11:24:55;;;;;;;0.68;0.68;;;;;;;7.20;77.81;95952.16;4960947;28;20233;-76
2024/01/04 11:27:24;;;;;;;0.85;0.85;;;;;;;7.16;78.07;95951.78;4976008;28;20058;-72
2024/01/04 11:29:53;;;;;;;0.77;0.77;;;;;;;7.11;78.12;95950.78;4962109;28;20054;-73
2024/01/04 11:32:21;;;;;;;0.80;0.80;;;;;;;7.12;78.77;95960.38;4956105;28;20047;-73
2024/01/04 11:34:49;;;;;;;0.90;0.90;;;;;;;7.11;78.44;95962.22;4950233;28;20098;-73
2024/01/04 11:37:18;;;;;;;0.73;0.73;;;;;;;7.14;77.68;95967.09;4955709;28;20050;-73
2024/01/04 11:39:56;;;;;;;0.75;0.75;;;;;;;7.15;77.81;95963.44;4943708;28;20074;-73
2024/01/04 11:42:34;;;;;;;0.90;0.90;;;;;;;7.13;77.63;95972.63;4948461;28;20051;-74
2024/01/04 11:45:05;;;;;;;1.00;1.00;;;;;;;7.12;78.33;95968.34;4935948;29;20142;-74
2024/01/04 11:47:40;;;;;;;0.75;0.75;;;;;;;7.10;78.51;95970.38;4956887;28;20078;-73